sensor_id;sensor_type;location;lat;lon;timestamp;P1;durP1;ratioP1;P2;durP2;ratioP2
23628;SDS011;11991;57.150;-2.134;2023-06-14T00:01:35;1.50;;;1.40;;
23628;SDS011;11991;57.150;-2.134;2023-06-14T00:04:04;2.40;;;1.83;;
23628;SDS011;11991;57.150;-2.134;2023-06-14T00:06:32;1.60;;;1.50;;
23628;SDS011;11991;57.150;-2.134;2023-06-14T00:09:00;1.83;;;1.63;;
23628;SDS011;11991;57.150;-2.134;2023-06-14T00:11:27;2.33;;;1.63;;
23628;SDS011;11991;57.150;-2.134;2023-06-14T00:13:56;1.60;;;1.40;;
23628;SDS011;11991;57.150;-2.134;2023-06-14T00:16:23;2.08;;;1.88;;
23628;SDS011;11991;57.150;-2.134;2023-06-14T00:18:51;1.52;;;1.42;;
23628;SDS011;11991;57.150;-2.134;2023-06-14T00:21:21;1.52;;;1.42;;
23628;SDS011;11991;57.150;-2.134;2023-06-14T00:23:48;2.20;;;1.65;;
23628;SDS011;11991;57.150;-2.134;2023-06-14T00:26:15;1.60;;;1.50;;
23628;SDS011;11991;57.150;-2.134;2023-06-14T00:28:43;1.42;;;1.30;;
23628;SDS011;11991;57.150;-2.134;2023-06-14T00:31:10;2.70;;;1.10;;
23628;SDS011;11991;57.150;-2.134;2023-06-14T00:33:37;2.08;;;1.88;;
23628;SDS011;11991;57.150;-2.134;2023-06-14T00:36:04;1.90;;;1.70;;
23628;SDS011;11991;57.150;-2.134;2023-06-14T00:38:31;1.58;;;1.48;;
23628;SDS011;11991;57.150;-2.134;2023-06-14T00:40:59;1.85;;;1.63;;
23628;SDS011;11991;57.150;-2.134;2023-06-14T00:43:26;1.50;;;1.40;;
23628;SDS011;11991;57.150;-2.134;2023-06-14T00:45:53;2.10;;;1.63;;
23628;SDS011;11991;57.150;-2.134;2023-06-14T00:48:20;1.70;;;1.60;;
23628;SDS011;11991;57.150;-2.134;2023-06-14T00:50:49;1.38;;;1.27;;
23628;SDS011;11991;57.150;-2.134;2023-06-14T00:53:17;1.33;;;1.23;;
23628;SDS011;11991;57.150;-2.134;2023-06-14T00:55:46;1.58;;;1.48;;
23628;SDS011;11991;57.150;-2.134;2023-06-14T00:58:15;2.65;;;1.90;;
23628;SDS011;11991;57.150;-2.134;2023-06-14T01:00:43;1.92;;;1.63;;
23628;SDS011;11991;57.150;-2.134;2023-06-14T01:03:10;1.77;;;1.65;;
23628;SDS011;11991;57.150;-2.134;2023-06-14T01:05:39;1.70;;;1.60;;
23628;SDS011;11991;57.150;-2.134;2023-06-14T01:11:07;1.50;;;1.40;;
23628;SDS011;11991;57.150;-2.134;2023-06-14T01:13:39;2.03;;;1.83;;
23628;SDS011;11991;57.150;-2.134;2023-06-14T01:16:10;1.90;;;1.63;;
23628;SDS011;11991;57.150;-2.134;2023-06-14T01:18:37;1.73;;;1.50;;
23628;SDS011;11991;57.150;-2.134;2023-06-14T01:21:04;2.20;;;1.90;;
23628;SDS011;11991;57.150;-2.134;2023-06-14T01:23:32;1.80;;;1.67;;
23628;SDS011;11991;57.150;-2.134;2023-06-14T01:26:00;2.83;;;1.92;;
23628;SDS011;11991;57.150;-2.134;2023-06-14T01:28:30;3.75;;;1.90;;
23628;SDS011;11991;57.150;-2.134;2023-06-14T01:31:00;3.83;;;2.25;;
23628;SDS011;11991;57.150;-2.134;2023-06-14T01:33:32;2.05;;;1.88;;
23628;SDS011;11991;57.150;-2.134;2023-06-14T01:36:01;2.20;;;2.00;;
23628;SDS011;11991;57.150;-2.134;2023-06-14T01:38:31;3.22;;;2.05;;
23628;SDS011;11991;57.150;-2.134;2023-06-14T01:40:59;2.53;;;1.90;;
23628;SDS011;11991;57.150;-2.134;2023-06-14T01:43:29;2.67;;;2.10;;
23628;SDS011;11991;57.150;-2.134;2023-06-14T01:45:57;1.90;;;1.70;;
23628;SDS011;11991;57.150;-2.134;2023-06-14T01:48:26;2.30;;;1.83;;
23628;SDS011;11991;57.150;-2.134;2023-06-14T01:50:53;1.88;;;1.77;;
23628;SDS011;11991;57.150;-2.134;2023-06-14T01:53:21;2.20;;;2.00;;
23628;SDS011;11991;57.150;-2.134;2023-06-14T01:55:49;2.35;;;1.75;;
23628;SDS011;11991;57.150;-2.134;2023-06-14T01:58:16;1.80;;;1.70;;
23628;SDS011;11991;57.150;-2.134;2023-06-14T02:00:43;2.83;;;1.90;;
23628;SDS011;11991;57.150;-2.134;2023-06-14T02:03:11;1.98;;;1.77;;
23628;SDS011;11991;57.150;-2.134;2023-06-14T02:05:39;1.73;;;1.60;;
23628;SDS011;11991;57.150;-2.134;2023-06-14T02:08:06;1.80;;;1.70;;
23628;SDS011;11991;57.150;-2.134;2023-06-14T02:10:34;2.58;;;1.95;;
23628;SDS011;11991;57.150;-2.134;2023-06-14T02:13:02;2.55;;;2.20;;
23628;SDS011;11991;57.150;-2.134;2023-06-14T02:15:29;2.28;;;1.92;;
23628;SDS011;11991;57.150;-2.134;2023-06-14T02:18:03;2.63;;;2.03;;
23628;SDS011;11991;57.150;-2.134;2023-06-14T02:20:32;2.47;;;1.90;;
23628;SDS011;11991;57.150;-2.134;2023-06-14T02:22:59;2.10;;;1.90;;
23628;SDS011;11991;57.150;-2.134;2023-06-14T02:25:30;2.88;;;1.88;;
23628;SDS011;11991;57.150;-2.134;2023-06-14T02:27:57;4.05;;;3.15;;
23628;SDS011;11991;57.150;-2.134;2023-06-14T02:30:25;3.38;;;2.83;;
23628;SDS011;11991;57.150;-2.134;2023-06-14T02:32:55;2.85;;;2.40;;
23628;SDS011;11991;57.150;-2.134;2023-06-14T02:35:23;3.92;;;2.45;;
23628;SDS011;11991;57.150;-2.134;2023-06-14T02:37:54;3.13;;;2.08;;
23628;SDS011;11991;57.150;-2.134;2023-06-14T02:40:22;2.83;;;2.00;;
23628;SDS011;11991;57.150;-2.134;2023-06-14T02:42:50;2.45;;;2.15;;
23628;SDS011;11991;57.150;-2.134;2023-06-14T02:45:17;1.98;;;1.77;;
23628;SDS011;11991;57.150;-2.134;2023-06-14T02:47:44;2.50;;;2.15;;
23628;SDS011;11991;57.150;-2.134;2023-06-14T02:50:13;2.58;;;2.38;;
23628;SDS011;11991;57.150;-2.134;2023-06-14T02:52:40;3.22;;;2.03;;
23628;SDS011;11991;57.150;-2.134;2023-06-14T02:55:08;2.53;;;2.33;;
23628;SDS011;11991;57.150;-2.134;2023-06-14T02:57:36;3.25;;;2.95;;
23628;SDS011;11991;57.150;-2.134;2023-06-14T03:00:06;2.45;;;2.17;;
23628;SDS011;11991;57.150;-2.134;2023-06-14T03:02:37;2.50;;;1.70;;
23628;SDS011;11991;57.150;-2.134;2023-06-14T03:05:04;2.42;;;2.17;;
23628;SDS011;11991;57.150;-2.134;2023-06-14T03:07:34;2.42;;;1.55;;
23628;SDS011;11991;57.150;-2.134;2023-06-14T03:10:03;1.92;;;1.70;;
23628;SDS011;11991;57.150;-2.134;2023-06-14T03:12:30;2.13;;;1.90;;
23628;SDS011;11991;57.150;-2.134;2023-06-14T03:14:58;1.88;;;1.58;;
23628;SDS011;11991;57.150;-2.134;2023-06-14T03:17:31;2.30;;;1.95;;
23628;SDS011;11991;57.150;-2.134;2023-06-14T03:20:02;2.80;;;1.75;;
23628;SDS011;11991;57.150;-2.134;2023-06-14T03:22:30;1.83;;;1.73;;
23628;SDS011;11991;57.150;-2.134;2023-06-14T03:24:58;2.45;;;2.00;;
23628;SDS011;11991;57.150;-2.134;2023-06-14T03:27:28;1.92;;;1.60;;
23628;SDS011;11991;57.150;-2.134;2023-06-14T03:29:56;2.63;;;2.17;;
23628;SDS011;11991;57.150;-2.134;2023-06-14T03:32:24;2.22;;;1.77;;
23628;SDS011;11991;57.150;-2.134;2023-06-14T03:34:51;1.92;;;1.73;;
23628;SDS011;11991;57.150;-2.134;2023-06-14T03:37:22;2.85;;;2.20;;
23628;SDS011;11991;57.150;-2.134;2023-06-14T03:39:49;2.10;;;1.90;;
23628;SDS011;11991;57.150;-2.134;2023-06-14T03:42:20;2.03;;;1.88;;
23628;SDS011;11991;57.150;-2.134;2023-06-14T03:44:48;2.28;;;1.80;;
23628;SDS011;11991;57.150;-2.134;2023-06-14T03:47:18;1.80;;;1.70;;
23628;SDS011;11991;57.150;-2.134;2023-06-14T03:49:45;2.45;;;1.77;;
23628;SDS011;11991;57.150;-2.134;2023-06-14T03:52:12;2.45;;;1.58;;
23628;SDS011;11991;57.150;-2.134;2023-06-14T03:54:42;1.63;;;1.52;;
23628;SDS011;11991;57.150;-2.134;2023-06-14T03:57:14;2.00;;;1.80;;
23628;SDS011;11991;57.150;-2.134;2023-06-14T03:59:42;3.88;;;1.95;;
23628;SDS011;11991;57.150;-2.134;2023-06-14T04:02:11;2.58;;;1.80;;
23628;SDS011;11991;57.150;-2.134;2023-06-14T04:04:43;1.83;;;1.67;;
23628;SDS011;11991;57.150;-2.134;2023-06-14T04:07:12;1.63;;;1.52;;
23628;SDS011;11991;57.150;-2.134;2023-06-14T04:09:39;1.88;;;1.45;;
23628;SDS011;11991;57.150;-2.134;2023-06-14T04:12:07;2.20;;;1.60;;
23628;SDS011;11991;57.150;-2.134;2023-06-14T04:14:41;1.35;;;1.25;;
23628;SDS011;11991;57.150;-2.134;2023-06-14T04:17:09;2.33;;;1.33;;
23628;SDS011;11991;57.150;-2.134;2023-06-14T04:19:38;1.67;;;1.58;;
23628;SDS011;11991;57.150;-2.134;2023-06-14T04:22:05;2.17;;;1.40;;
23628;SDS011;11991;57.150;-2.134;2023-06-14T04:24:34;1.42;;;1.33;;
23628;SDS011;11991;57.150;-2.134;2023-06-14T04:27:02;2.72;;;2.03;;
23628;SDS011;11991;57.150;-2.134;2023-06-14T04:29:30;2.20;;;2.00;;
23628;SDS011;11991;57.150;-2.134;2023-06-14T04:32:04;5.13;;;2.35;;
23628;SDS011;11991;57.150;-2.134;2023-06-14T04:34:33;1.98;;;1.85;;
23628;SDS011;11991;57.150;-2.134;2023-06-14T04:37:02;1.70;;;1.60;;
23628;SDS011;11991;57.150;-2.134;2023-06-14T04:39:32;1.88;;;1.65;;
23628;SDS011;11991;57.150;-2.134;2023-06-14T04:42:01;2.20;;;1.90;;
23628;SDS011;11991;57.150;-2.134;2023-06-14T04:44:32;2.50;;;2.30;;
23628;SDS011;11991;57.150;-2.134;2023-06-14T04:47:01;3.42;;;2.28;;
23628;SDS011;11991;57.150;-2.134;2023-06-14T04:49:28;3.40;;;2.95;;
23628;SDS011;11991;57.150;-2.134;2023-06-14T04:51:59;3.13;;;2.45;;
23628;SDS011;11991;57.150;-2.134;2023-06-14T04:54:34;2.58;;;2.38;;
23628;SDS011;11991;57.150;-2.134;2023-06-14T04:57:07;2.97;;;2.28;;
23628;SDS011;11991;57.150;-2.134;2023-06-14T04:59:46;2.33;;;2.10;;
23628;SDS011;11991;57.150;-2.134;2023-06-14T05:02:13;3.38;;;2.00;;
23628;SDS011;11991;57.150;-2.134;2023-06-14T05:04:42;2.10;;;1.90;;
23628;SDS011;11991;57.150;-2.134;2023-06-14T05:07:09;2.30;;;2.10;;
23628;SDS011;11991;57.150;-2.134;2023-06-14T05:09:37;3.47;;;2.15;;
23628;SDS011;11991;57.150;-2.134;2023-06-14T05:12:04;3.30;;;2.47;;
23628;SDS011;11991;57.150;-2.134;2023-06-14T05:14:34;2.30;;;2.08;;
23628;SDS011;11991;57.150;-2.134;2023-06-14T05:17:02;2.28;;;2.08;;
23628;SDS011;11991;57.150;-2.134;2023-06-14T05:19:29;2.67;;;2.10;;
23628;SDS011;11991;57.150;-2.134;2023-06-14T05:21:56;2.42;;;2.22;;
23628;SDS011;11991;57.150;-2.134;2023-06-14T05:24:24;4.43;;;3.08;;
23628;SDS011;11991;57.150;-2.134;2023-06-14T05:26:51;2.55;;;2.08;;
23628;SDS011;11991;57.150;-2.134;2023-06-14T05:29:19;2.85;;;2.42;;
23628;SDS011;11991;57.150;-2.134;2023-06-14T05:31:47;2.40;;;2.08;;
23628;SDS011;11991;57.150;-2.134;2023-06-14T05:34:14;2.20;;;2.00;;
23628;SDS011;11991;57.150;-2.134;2023-06-14T05:36:42;4.50;;;2.15;;
23628;SDS011;11991;57.150;-2.134;2023-06-14T05:39:09;2.47;;;2.20;;
23628;SDS011;11991;57.150;-2.134;2023-06-14T05:41:36;1.90;;;1.70;;
23628;SDS011;11991;57.150;-2.134;2023-06-14T05:44:04;2.00;;;1.80;;
23628;SDS011;11991;57.150;-2.134;2023-06-14T05:46:31;3.20;;;2.00;;
23628;SDS011;11991;57.150;-2.134;2023-06-14T05:48:58;1.70;;;1.58;;
23628;SDS011;11991;57.150;-2.134;2023-06-14T05:51:25;2.20;;;2.00;;
23628;SDS011;11991;57.150;-2.134;2023-06-14T05:53:53;1.80;;;1.70;;
23628;SDS011;11991;57.150;-2.134;2023-06-14T05:56:20;2.97;;;2.00;;
23628;SDS011;11991;57.150;-2.134;2023-06-14T05:58:48;2.20;;;2.00;;
23628;SDS011;11991;57.150;-2.134;2023-06-14T06:01:17;2.08;;;1.88;;
23628;SDS011;11991;57.150;-2.134;2023-06-14T06:03:44;2.38;;;2.10;;
23628;SDS011;11991;57.150;-2.134;2023-06-14T06:06:14;2.63;;;2.10;;
23628;SDS011;11991;57.150;-2.134;2023-06-14T06:08:42;2.20;;;2.00;;
23628;SDS011;11991;57.150;-2.134;2023-06-14T06:11:10;2.60;;;2.40;;
23628;SDS011;11991;57.150;-2.134;2023-06-14T06:13:37;3.58;;;2.42;;
23628;SDS011;11991;57.150;-2.134;2023-06-14T06:16:05;3.53;;;2.03;;
23628;SDS011;11991;57.150;-2.134;2023-06-14T06:18:32;2.05;;;1.92;;
23628;SDS011;11991;57.150;-2.134;2023-06-14T06:21:00;1.95;;;1.80;;
23628;SDS011;11991;57.150;-2.134;2023-06-14T06:23:29;4.85;;;2.88;;
23628;SDS011;11991;57.150;-2.134;2023-06-14T06:25:56;2.75;;;2.17;;
23628;SDS011;11991;57.150;-2.134;2023-06-14T06:28:23;3.33;;;2.30;;
23628;SDS011;11991;57.150;-2.134;2023-06-14T06:30:51;2.30;;;1.98;;
23628;SDS011;11991;57.150;-2.134;2023-06-14T06:33:18;3.33;;;2.50;;
23628;SDS011;11991;57.150;-2.134;2023-06-14T06:35:45;3.67;;;2.70;;
23628;SDS011;11991;57.150;-2.134;2023-06-14T06:38:12;4.45;;;2.85;;
23628;SDS011;11991;57.150;-2.134;2023-06-14T06:40:40;2.58;;;2.38;;
23628;SDS011;11991;57.150;-2.134;2023-06-14T06:43:07;2.58;;;2.38;;
23628;SDS011;11991;57.150;-2.134;2023-06-14T06:45:40;3.22;;;2.75;;
23628;SDS011;11991;57.150;-2.134;2023-06-14T06:48:07;2.60;;;2.40;;
23628;SDS011;11991;57.150;-2.134;2023-06-14T06:50:36;3.50;;;2.40;;
23628;SDS011;11991;57.150;-2.134;2023-06-14T06:53:04;4.68;;;2.80;;
23628;SDS011;11991;57.150;-2.134;2023-06-14T06:55:31;3.90;;;3.05;;
23628;SDS011;11991;57.150;-2.134;2023-06-14T06:57:59;2.25;;;1.90;;
23628;SDS011;11991;57.150;-2.134;2023-06-14T07:00:26;3.08;;;2.55;;
23628;SDS011;11991;57.150;-2.134;2023-06-14T07:02:54;2.58;;;2.38;;
23628;SDS011;11991;57.150;-2.134;2023-06-14T07:05:21;2.53;;;2.33;;
23628;SDS011;11991;57.150;-2.134;2023-06-14T07:07:49;4.35;;;2.67;;
23628;SDS011;11991;57.150;-2.134;2023-06-14T07:10:16;2.60;;;2.40;;
23628;SDS011;11991;57.150;-2.134;2023-06-14T07:12:44;2.85;;;2.55;;
23628;SDS011;11991;57.150;-2.134;2023-06-14T07:15:11;4.00;;;2.50;;
23628;SDS011;11991;57.150;-2.134;2023-06-14T07:17:39;3.28;;;2.30;;
23628;SDS011;11991;57.150;-2.134;2023-06-14T07:20:07;3.03;;;2.40;;
23628;SDS011;11991;57.150;-2.134;2023-06-14T07:22:38;3.13;;;2.55;;
23628;SDS011;11991;57.150;-2.134;2023-06-14T07:25:08;2.58;;;2.25;;
23628;SDS011;11991;57.150;-2.134;2023-06-14T07:27:36;3.00;;;2.70;;
23628;SDS011;11991;57.150;-2.134;2023-06-14T07:30:03;2.35;;;2.15;;
23628;SDS011;11991;57.150;-2.134;2023-06-14T07:32:31;3.35;;;2.72;;
23628;SDS011;11991;57.150;-2.134;2023-06-14T07:34:58;4.78;;;3.40;;
23628;SDS011;11991;57.150;-2.134;2023-06-14T07:37:25;4.18;;;2.78;;
23628;SDS011;11991;57.150;-2.134;2023-06-14T07:39:53;3.22;;;2.85;;
23628;SDS011;11991;57.150;-2.134;2023-06-14T07:42:20;3.67;;;3.28;;
23628;SDS011;11991;57.150;-2.134;2023-06-14T07:44:47;2.85;;;2.58;;
23628;SDS011;11991;57.150;-2.134;2023-06-14T07:47:14;3.28;;;2.97;;
23628;SDS011;11991;57.150;-2.134;2023-06-14T07:49:42;3.17;;;2.88;;
23628;SDS011;11991;57.150;-2.134;2023-06-14T07:52:09;4.82;;;3.20;;
23628;SDS011;11991;57.150;-2.134;2023-06-14T07:54:36;3.47;;;3.10;;
23628;SDS011;11991;57.150;-2.134;2023-06-14T07:57:03;4.05;;;2.92;;
23628;SDS011;11991;57.150;-2.134;2023-06-14T07:59:31;3.47;;;3.17;;
23628;SDS011;11991;57.150;-2.134;2023-06-14T08:01:58;4.07;;;3.50;;
23628;SDS011;11991;57.150;-2.134;2023-06-14T08:04:25;4.20;;;2.97;;
23628;SDS011;11991;57.150;-2.134;2023-06-14T08:06:52;3.63;;;3.33;;
23628;SDS011;11991;57.150;-2.134;2023-06-14T08:09:19;4.82;;;4.22;;
23628;SDS011;11991;57.150;-2.134;2023-06-14T08:11:47;4.43;;;3.70;;
23628;SDS011;11991;57.150;-2.134;2023-06-14T08:14:14;3.72;;;3.20;;
23628;SDS011;11991;57.150;-2.134;2023-06-14T08:16:41;3.88;;;3.22;;
23628;SDS011;11991;57.150;-2.134;2023-06-14T08:19:08;3.67;;;3.25;;
23628;SDS011;11991;57.150;-2.134;2023-06-14T08:21:35;4.00;;;3.55;;
23628;SDS011;11991;57.150;-2.134;2023-06-14T08:24:03;5.15;;;3.55;;
23628;SDS011;11991;57.150;-2.134;2023-06-14T08:26:30;4.75;;;3.47;;
23628;SDS011;11991;57.150;-2.134;2023-06-14T08:28:58;4.10;;;3.70;;
23628;SDS011;11991;57.150;-2.134;2023-06-14T08:31:25;4.18;;;3.20;;
23628;SDS011;11991;57.150;-2.134;2023-06-14T08:33:54;4.07;;;3.33;;
23628;SDS011;11991;57.150;-2.134;2023-06-14T08:36:21;4.82;;;3.70;;
23628;SDS011;11991;57.150;-2.134;2023-06-14T08:38:49;5.00;;;3.63;;
23628;SDS011;11991;57.150;-2.134;2023-06-14T08:41:22;4.55;;;3.55;;
23628;SDS011;11991;57.150;-2.134;2023-06-14T08:43:51;3.75;;;3.20;;
23628;SDS011;11991;57.150;-2.134;2023-06-14T08:46:19;3.42;;;2.75;;
23628;SDS011;11991;57.150;-2.134;2023-06-14T08:48:46;3.45;;;3.00;;
23628;SDS011;11991;57.150;-2.134;2023-06-14T08:51:18;3.42;;;2.80;;
23628;SDS011;11991;57.150;-2.134;2023-06-14T08:53:55;4.00;;;3.20;;
23628;SDS011;11991;57.150;-2.134;2023-06-14T08:56:26;3.38;;;3.05;;
23628;SDS011;11991;57.150;-2.134;2023-06-14T08:59:00;2.70;;;2.50;;
23628;SDS011;11991;57.150;-2.134;2023-06-14T09:01:33;3.72;;;2.97;;
23628;SDS011;11991;57.150;-2.134;2023-06-14T09:04:01;3.25;;;2.95;;
23628;SDS011;11991;57.150;-2.134;2023-06-14T09:06:29;4.05;;;3.15;;
23628;SDS011;11991;57.150;-2.134;2023-06-14T09:08:56;2.97;;;2.75;;
23628;SDS011;11991;57.150;-2.134;2023-06-14T09:11:24;5.35;;;4.32;;
23628;SDS011;11991;57.150;-2.134;2023-06-14T09:13:53;4.03;;;3.22;;
23628;SDS011;11991;57.150;-2.134;2023-06-14T09:16:20;4.90;;;3.42;;
23628;SDS011;11991;57.150;-2.134;2023-06-14T09:18:47;3.60;;;3.30;;
23628;SDS011;11991;57.150;-2.134;2023-06-14T09:21:15;3.47;;;3.17;;
23628;SDS011;11991;57.150;-2.134;2023-06-14T09:23:46;3.67;;;3.10;;
23628;SDS011;11991;57.150;-2.134;2023-06-14T09:26:15;3.53;;;3.22;;
23628;SDS011;11991;57.150;-2.134;2023-06-14T09:28:44;4.18;;;3.45;;
23628;SDS011;11991;57.150;-2.134;2023-06-14T09:31:14;4.28;;;3.88;;
23628;SDS011;11991;57.150;-2.134;2023-06-14T09:33:46;3.17;;;2.88;;
23628;SDS011;11991;57.150;-2.134;2023-06-14T09:36:15;4.38;;;3.78;;
23628;SDS011;11991;57.150;-2.134;2023-06-14T09:38:55;3.97;;;3.55;;
23628;SDS011;11991;57.150;-2.134;2023-06-14T09:41:37;3.38;;;3.05;;
23628;SDS011;11991;57.150;-2.134;2023-06-14T09:44:09;4.30;;;3.90;;
23628;SDS011;11991;57.150;-2.134;2023-06-14T09:46:46;3.63;;;3.33;;
23628;SDS011;11991;57.150;-2.134;2023-06-14T09:49:14;3.40;;;3.10;;
23628;SDS011;11991;57.150;-2.134;2023-06-14T09:51:43;3.95;;;3.33;;
23628;SDS011;11991;57.150;-2.134;2023-06-14T09:54:15;3.40;;;3.10;;
23628;SDS011;11991;57.150;-2.134;2023-06-14T09:56:46;3.08;;;2.75;;
23628;SDS011;11991;57.150;-2.134;2023-06-14T09:59:16;3.55;;;3.25;;
23628;SDS011;11991;57.150;-2.134;2023-06-14T10:01:47;3.47;;;3.17;;
23628;SDS011;11991;57.150;-2.134;2023-06-14T10:04:16;4.28;;;3.67;;
23628;SDS011;11991;57.150;-2.134;2023-06-14T10:06:48;3.70;;;2.72;;
23628;SDS011;11991;57.150;-2.134;2023-06-14T10:09:17;4.32;;;3.92;;
23628;SDS011;11991;57.150;-2.134;2023-06-14T10:11:45;4.55;;;3.70;;
23628;SDS011;11991;57.150;-2.134;2023-06-14T10:14:12;3.42;;;3.00;;
23628;SDS011;11991;57.150;-2.134;2023-06-14T10:19:34;3.70;;;3.28;;
23628;SDS011;11991;57.150;-2.134;2023-06-14T10:22:19;3.63;;;3.33;;
23628;SDS011;11991;57.150;-2.134;2023-06-14T10:25:01;5.07;;;3.75;;
23628;SDS011;11991;57.150;-2.134;2023-06-14T10:27:29;4.47;;;4.07;;
23628;SDS011;11991;57.150;-2.134;2023-06-14T10:32:24;3.75;;;3.22;;
23628;SDS011;11991;57.150;-2.134;2023-06-14T10:37:24;3.65;;;3.33;;
23628;SDS011;11991;57.150;-2.134;2023-06-14T10:39:51;2.80;;;2.60;;
23628;SDS011;11991;57.150;-2.134;2023-06-14T10:42:19;3.10;;;2.80;;
23628;SDS011;11991;57.150;-2.134;2023-06-14T10:44:58;3.53;;;2.85;;
23628;SDS011;11991;57.150;-2.134;2023-06-14T10:50:08;3.00;;;2.70;;
23628;SDS011;11991;57.150;-2.134;2023-06-14T10:52:38;3.85;;;2.60;;
23628;SDS011;11991;57.150;-2.134;2023-06-14T10:55:12;3.63;;;3.17;;
23628;SDS011;11991;57.150;-2.134;2023-06-14T10:57:52;3.13;;;2.88;;
23628;SDS011;11991;57.150;-2.134;2023-06-14T11:00:26;4.03;;;3.67;;
23628;SDS011;11991;57.150;-2.134;2023-06-14T11:11:00;3.65;;;3.35;;
23628;SDS011;11991;57.150;-2.134;2023-06-14T11:13:32;4.18;;;3.42;;
23628;SDS011;11991;57.150;-2.134;2023-06-14T11:15:59;3.22;;;2.92;;
23628;SDS011;11991;57.150;-2.134;2023-06-14T11:18:28;3.47;;;3.17;;
23628;SDS011;11991;57.150;-2.134;2023-06-14T11:20:55;3.35;;;3.05;;
23628;SDS011;11991;57.150;-2.134;2023-06-14T11:23:22;3.67;;;3.10;;
23628;SDS011;11991;57.150;-2.134;2023-06-14T11:25:53;3.63;;;3.25;;
23628;SDS011;11991;57.150;-2.134;2023-06-14T11:28:23;3.40;;;2.95;;
23628;SDS011;11991;57.150;-2.134;2023-06-14T11:30:59;4.07;;;3.05;;
23628;SDS011;11991;57.150;-2.134;2023-06-14T11:33:27;5.70;;;3.25;;
23628;SDS011;11991;57.150;-2.134;2023-06-14T11:35:54;4.75;;;3.13;;
23628;SDS011;11991;57.150;-2.134;2023-06-14T11:38:21;3.10;;;2.75;;
23628;SDS011;11991;57.150;-2.134;2023-06-14T11:40:49;2.78;;;2.58;;
23628;SDS011;11991;57.150;-2.134;2023-06-14T11:43:16;3.22;;;2.92;;
23628;SDS011;11991;57.150;-2.134;2023-06-14T11:45:43;4.63;;;3.70;;
23628;SDS011;11991;57.150;-2.134;2023-06-14T11:48:35;4.15;;;3.42;;
23628;SDS011;11991;57.150;-2.134;2023-06-14T11:51:07;3.92;;;3.45;;
23628;SDS011;11991;57.150;-2.134;2023-06-14T11:53:34;3.10;;;2.80;;
23628;SDS011;11991;57.150;-2.134;2023-06-14T11:56:02;2.85;;;2.65;;
23628;SDS011;11991;57.150;-2.134;2023-06-14T11:58:30;3.95;;;3.55;;
23628;SDS011;11991;57.150;-2.134;2023-06-14T12:00:57;3.83;;;3.17;;
23628;SDS011;11991;57.150;-2.134;2023-06-14T12:03:24;3.33;;;3.03;;
23628;SDS011;11991;57.150;-2.134;2023-06-14T12:06:04;6.05;;;4.18;;
23628;SDS011;11991;57.150;-2.134;2023-06-14T12:08:38;3.70;;;3.40;;
23628;SDS011;11991;57.150;-2.134;2023-06-14T12:11:10;3.95;;;3.33;;
23628;SDS011;11991;57.150;-2.134;2023-06-14T12:13:40;3.22;;;2.83;;
23628;SDS011;11991;57.150;-2.134;2023-06-14T12:16:08;3.33;;;3.03;;
23628;SDS011;11991;57.150;-2.134;2023-06-14T12:18:38;3.22;;;2.83;;
23628;SDS011;11991;57.150;-2.134;2023-06-14T12:21:08;4.18;;;3.78;;
23628;SDS011;11991;57.150;-2.134;2023-06-14T12:23:47;4.18;;;3.40;;
23628;SDS011;11991;57.150;-2.134;2023-06-14T12:26:16;3.28;;;2.90;;
23628;SDS011;11991;57.150;-2.134;2023-06-14T12:28:45;3.22;;;2.80;;
23628;SDS011;11991;57.150;-2.134;2023-06-14T12:31:13;3.22;;;2.92;;
23628;SDS011;11991;57.150;-2.134;2023-06-14T12:33:42;3.90;;;3.03;;
23628;SDS011;11991;57.150;-2.134;2023-06-14T12:36:13;3.28;;;2.97;;
23628;SDS011;11991;57.150;-2.134;2023-06-14T12:38:40;3.50;;;3.08;;
23628;SDS011;11991;57.150;-2.134;2023-06-14T12:41:08;3.40;;;3.10;;
23628;SDS011;11991;57.150;-2.134;2023-06-14T12:43:35;3.25;;;2.95;;
23628;SDS011;11991;57.150;-2.134;2023-06-14T12:46:02;3.15;;;2.85;;
23628;SDS011;11991;57.150;-2.134;2023-06-14T12:48:29;3.13;;;2.50;;
23628;SDS011;11991;57.150;-2.134;2023-06-14T12:50:57;3.38;;;2.38;;
23628;SDS011;11991;57.150;-2.134;2023-06-14T12:53:25;2.70;;;2.50;;
23628;SDS011;11991;57.150;-2.134;2023-06-14T12:55:52;3.05;;;2.75;;
23628;SDS011;11991;57.150;-2.134;2023-06-14T12:58:19;3.40;;;2.58;;
23628;SDS011;11991;57.150;-2.134;2023-06-14T13:00:46;3.05;;;2.75;;
23628;SDS011;11991;57.150;-2.134;2023-06-14T13:03:14;3.70;;;3.10;;
23628;SDS011;11991;57.150;-2.134;2023-06-14T13:05:41;2.90;;;2.50;;
23628;SDS011;11991;57.150;-2.134;2023-06-14T13:08:09;2.50;;;2.22;;
23628;SDS011;11991;57.150;-2.134;2023-06-14T13:10:36;5.25;;;2.70;;
23628;SDS011;11991;57.150;-2.134;2023-06-14T13:13:04;2.78;;;2.58;;
23628;SDS011;11991;57.150;-2.134;2023-06-14T13:15:31;2.10;;;1.90;;
23628;SDS011;11991;57.150;-2.134;2023-06-14T13:17:58;2.67;;;2.40;;
23628;SDS011;11991;57.150;-2.134;2023-06-14T13:20:25;2.70;;;2.50;;
23628;SDS011;11991;57.150;-2.134;2023-06-14T13:22:52;2.83;;;2.40;;
23628;SDS011;11991;57.150;-2.134;2023-06-14T13:25:20;4.18;;;3.20;;
23628;SDS011;11991;57.150;-2.134;2023-06-14T13:27:48;3.08;;;2.78;;
23628;SDS011;11991;57.150;-2.134;2023-06-14T13:30:16;3.10;;;2.83;;
23628;SDS011;11991;57.150;-2.134;2023-06-14T13:32:43;3.20;;;2.55;;
23628;SDS011;11991;57.150;-2.134;2023-06-14T13:35:13;3.63;;;2.90;;
23628;SDS011;11991;57.150;-2.134;2023-06-14T13:37:41;2.20;;;2.00;;
23628;SDS011;11991;57.150;-2.134;2023-06-14T13:40:08;2.25;;;2.05;;
23628;SDS011;11991;57.150;-2.134;2023-06-14T13:42:35;1.80;;;1.70;;
23628;SDS011;11991;57.150;-2.134;2023-06-14T13:45:03;1.85;;;1.67;;
23628;SDS011;11991;57.150;-2.134;2023-06-14T13:47:31;2.03;;;1.83;;
23628;SDS011;11991;57.150;-2.134;2023-06-14T13:49:59;2.10;;;1.85;;
23628;SDS011;11991;57.150;-2.134;2023-06-14T13:52:26;1.75;;;1.63;;
23628;SDS011;11991;57.150;-2.134;2023-06-14T13:54:53;2.85;;;1.55;;
23628;SDS011;11991;57.150;-2.134;2023-06-14T13:57:20;1.95;;;1.80;;
23628;SDS011;11991;57.150;-2.134;2023-06-14T13:59:48;2.20;;;1.77;;
23628;SDS011;11991;57.150;-2.134;2023-06-14T14:02:15;2.47;;;1.92;;
23628;SDS011;11991;57.150;-2.134;2023-06-14T14:04:42;2.75;;;1.80;;
23628;SDS011;11991;57.150;-2.134;2023-06-14T14:07:09;3.40;;;1.77;;
23628;SDS011;11991;57.150;-2.134;2023-06-14T14:09:36;1.80;;;1.33;;
23628;SDS011;11991;57.150;-2.134;2023-06-14T14:12:04;3.03;;;1.63;;
23628;SDS011;11991;57.150;-2.134;2023-06-14T14:14:32;1.45;;;1.30;;
23628;SDS011;11991;57.150;-2.134;2023-06-14T14:16:59;1.38;;;1.27;;
23628;SDS011;11991;57.150;-2.134;2023-06-14T14:19:28;1.60;;;1.50;;
23628;SDS011;11991;57.150;-2.134;2023-06-14T14:21:58;2.38;;;1.60;;
23628;SDS011;11991;57.150;-2.134;2023-06-14T14:24:25;1.73;;;1.50;;
23628;SDS011;11991;57.150;-2.134;2023-06-14T14:26:53;2.65;;;1.55;;
23628;SDS011;11991;57.150;-2.134;2023-06-14T14:29:20;1.85;;;1.63;;
23628;SDS011;11991;57.150;-2.134;2023-06-14T14:31:50;1.60;;;1.38;;
23628;SDS011;11991;57.150;-2.134;2023-06-14T14:34:17;1.92;;;1.58;;
23628;SDS011;11991;57.150;-2.134;2023-06-14T14:36:45;3.03;;;1.75;;
23628;SDS011;11991;57.150;-2.134;2023-06-14T14:39:12;1.85;;;1.67;;
23628;SDS011;11991;57.150;-2.134;2023-06-14T14:41:39;1.90;;;1.67;;
23628;SDS011;11991;57.150;-2.134;2023-06-14T14:44:08;1.50;;;1.40;;
23628;SDS011;11991;57.150;-2.134;2023-06-14T14:46:35;1.58;;;1.30;;
23628;SDS011;11991;57.150;-2.134;2023-06-14T14:49:02;1.45;;;1.35;;
23628;SDS011;11991;57.150;-2.134;2023-06-14T14:51:30;1.50;;;1.23;;
23628;SDS011;11991;57.150;-2.134;2023-06-14T14:53:57;1.65;;;1.40;;
23628;SDS011;11991;57.150;-2.134;2023-06-14T14:56:24;1.80;;;1.27;;
23628;SDS011;11991;57.150;-2.134;2023-06-14T14:58:52;1.98;;;1.55;;
23628;SDS011;11991;57.150;-2.134;2023-06-14T15:01:19;1.73;;;1.48;;
23628;SDS011;11991;57.150;-2.134;2023-06-14T15:03:46;2.00;;;1.33;;
